Weather at Stanhope Municipal Airport

Public forecast

Using degrees Celsius for public forecast. Weather courtesy of forecast.io.

Closest aviation weather report (METAR) to Stanhope Municipal Airport

Closest report is Muskoka Airport, 29.3 nm (54.3 km) WSW. Retrieved 2020/09/24 05:00 UTC (41 minutes ago):

CYQA 240500Z AUTO 00000KT 1/8SM FG VV001 10/10 A2991 RMK SLP134

Closest aviation forecast (TAF) to Stanhope Municipal Airport

Forecast is more than 6 hours old.

Closest forecast is Muskoka Airport, 29.3 nm (54.3 km) WSW. Retrieved 2020/09/23 20:00 UTC (10 hours ago):

TAF CYQA 231942Z 2320/2402 FCST NOT AVBL DUE NO OBS RMK FCST BASED ON AUTO OBS NXT FCST WILL BE ISSUED AT 241145Z